Time;durP1;ratioP1;P1;durP2;ratioP2;P2;SDS_P1;SDS_P2;PMS_P1;PMS_P2;Temp;Humidity;BMP_temperature;BMP_pressure;BME280_temperature;BME280_humidity;BME280_pressure;Samples;Min_cycle;Max_cycle;Signal;HPM_P1;HPM_P2
2021/09/26 00:00:10;;;;;;;14.40;11.15;;;16.90;99.90;;;;;;5112862;28;20080;-35
2021/09/26 00:02:35;;;;;;;13.32;10.50;;;16.90;99.90;;;;;;5104258;28;20026;-36
2021/09/26 00:05:01;;;;;;;14.15;11.45;;;16.90;99.90;;;;;;5112566;28;20122;-41
2021/09/26 00:07:30;;;;;;;14.68;11.02;;;16.90;99.90;;;;;;5111908;28;20014;-38
2021/09/26 00:09:55;;;;;;;14.27;11.38;;;16.80;99.90;;;;;;5112765;28;20305;-36
2021/09/26 00:12:21;;;;;;;13.05;10.50;;;16.80;99.90;;;;;;5111688;28;20024;-36
2021/09/26 00:14:46;;;;;;;15.70;11.77;;;16.80;99.90;;;;;;5112850;28;20058;-34
2021/09/26 00:17:12;;;;;;;14.00;11.38;;;16.80;99.90;;;;;;5112472;28;20035;-34
2021/09/26 00:19:38;;;;;;;13.07;10.85;;;16.80;99.90;;;;;;5111623;28;20105;-34
2021/09/26 00:22:07;;;;;;;16.13;11.38;;;16.80;99.90;;;;;;5112668;28;20019;-40
2021/09/26 00:24:32;;;;;;;14.13;11.32;;;16.70;99.90;;;;;;5112282;28;20065;-39
2021/09/26 00:26:58;;;;;;;14.95;11.02;;;16.70;99.90;;;;;;5112342;28;20012;-38
2021/09/26 00:32:19;;;;;;;14.43;11.00;;;16.70;99.90;;;;;;5108481;28;20027;-32
2021/09/26 00:34:45;;;;;;;12.93;11.32;;;16.60;99.90;;;;;;5111589;28;20497;-39
2021/09/26 00:37:10;;;;;;;15.00;12.15;;;16.60;99.90;;;;;;5112840;28;20011;-37
2021/09/26 00:39:36;;;;;;;15.90;12.05;;;16.60;99.90;;;;;;5111669;28;20095;-39
2021/09/26 00:42:01;;;;;;;14.82;11.85;;;16.60;99.90;;;;;;5111176;28;20024;-38
2021/09/26 00:44:28;;;;;;;15.65;11.63;;;16.60;99.90;;;;;;5111009;28;20024;-39
2021/09/26 00:46:53;;;;;;;16.65;12.20;;;16.60;99.90;;;;;;5112000;28;20046;-39
2021/09/26 00:49:20;;;;;;;15.10;11.95;;;16.60;99.90;;;;;;5111582;28;20019;-38
2021/09/26 00:51:46;;;;;;;14.55;11.00;;;16.60;99.90;;;;;;5111917;28;20513;-39
2021/09/26 00:54:12;;;;;;;14.57;11.20;;;16.50;99.90;;;;;;5111098;28;20019;-39
2021/09/26 00:56:38;;;;;;;14.88;11.52;;;16.50;99.90;;;;;;5111140;28;20027;-39
2021/09/26 00:59:10;;;;;;;14.70;11.75;;;16.50;99.90;;;;;;5111416;28;20064;-38
2021/09/26 01:01:38;;;;;;;14.93;11.80;;;16.40;99.90;;;;;;5110584;28;20062;-38
2021/09/26 01:04:07;;;;;;;14.27;11.25;;;16.40;99.90;;;;;;5111302;28;20106;-38
2021/09/26 01:06:55;;;;;;;14.98;11.63;;;16.50;99.90;;;;;;5110446;28;20375;-36
2021/09/26 01:09:30;;;;;;;13.68;10.60;;;16.40;99.90;;;;;;5109430;28;20533;-38
2021/09/26 01:12:07;;;;;;;15.60;11.75;;;16.40;99.90;;;;;;5111397;28;20110;-40
2021/09/26 01:15:02;;;;;;;12.48;11.00;;;16.30;99.90;;;;;;5110475;28;20117;-39
2021/09/26 01:17:36;;;;;;;15.50;12.30;;;16.30;99.90;;;;;;5110220;28;20039;-37
2021/09/26 01:20:01;;;;;;;15.95;12.60;;;16.30;99.90;;;;;;5108619;28;20043;-37
2021/09/26 01:23:06;;;;;;;16.77;12.07;;;16.30;99.90;;;;;;5110725;28;20352;-36
2021/09/26 01:25:47;;;;;;;16.13;12.13;;;16.30;99.90;;;;;;5106837;28;20152;-37
2021/09/26 01:28:23;;;;;;;17.13;12.60;;;16.30;99.90;;;;;;5111058;28;20037;-39
2021/09/26 01:31:08;;;;;;;15.00;11.63;;;16.30;99.90;;;;;;5110267;28;20019;-40
2021/09/26 01:33:40;;;;;;;15.45;11.48;;;16.30;99.90;;;;;;5109367;28;20032;-40
2021/09/26 01:36:14;;;;;;;11.73;9.95;;;16.30;99.90;;;;;;5110940;28;20110;-39
2021/09/26 01:38:48;;;;;;;16.20;11.50;;;16.20;99.90;;;;;;5110396;28;20016;-39
2021/09/26 01:41:42;;;;;;;14.93;10.80;;;16.20;99.90;;;;;;5110518;28;20027;-39
2021/09/26 01:44:24;;;;;;;14.45;11.27;;;16.20;99.90;;;;;;5110067;28;20416;-38
2021/09/26 01:46:54;;;;;;;14.38;11.77;;;16.20;99.90;;;;;;5110586;28;20032;-36
2021/09/26 01:49:27;;;;;;;14.32;10.90;;;16.10;99.90;;;;;;5109871;28;20027;-36
2021/09/26 01:51:55;;;;;;;14.85;11.88;;;16.10;99.90;;;;;;5110729;28;20019;-37
2021/09/26 01:54:21;;;;;;;15.38;12.02;;;16.10;99.90;;;;;;5109701;28;20024;-38
2021/09/26 01:56:51;;;;;;;15.27;11.77;;;16.10;99.90;;;;;;5110237;28;20020;-37
2021/09/26 01:59:22;;;;;;;14.23;12.00;;;16.10;99.90;;;;;;5109676;28;20027;-38
2021/09/26 02:01:55;;;;;;;14.40;10.98;;;16.10;99.90;;;;;;5110433;28;20115;-38
2021/09/26 02:04:21;;;;;;;14.88;11.52;;;16.00;99.90;;;;;;5109644;28;20463;-38
2021/09/26 02:06:49;;;;;;;15.38;12.00;;;16.00;99.90;;;;;;5110548;28;20024;-37
2021/09/26 02:09:16;;;;;;;15.23;11.98;;;16.00;99.90;;;;;;5110184;28;20502;-37
2021/09/26 02:11:42;;;;;;;15.80;11.73;;;16.00;99.90;;;;;;5109046;28;20482;-36
2021/09/26 02:14:09;;;;;;;14.30;11.70;;;16.00;99.90;;;;;;5110337;28;20031;-38
2021/09/26 02:16:38;;;;;;;14.88;12.30;;;16.00;99.90;;;;;;5109434;28;20468;-37
2021/09/26 02:19:04;;;;;;;14.82;11.45;;;15.90;99.90;;;;;;5110180;28;20067;-37
2021/09/26 02:21:32;;;;;;;13.88;10.90;;;15.90;99.90;;;;;;5109664;28;20051;-38
2021/09/26 02:23:59;;;;;;;13.63;11.30;;;15.90;99.90;;;;;;5110450;28;20104;-36
2021/09/26 02:26:37;;;;;;;13.55;11.10;;;15.90;99.90;;;;;;5109145;28;20055;-39
2021/09/26 02:29:04;;;;;;;15.68;12.02;;;15.90;99.90;;;;;;5110527;28;20024;-38
2021/09/26 02:31:29;;;;;;;19.20;12.45;;;15.90;99.90;;;;;;5109462;28;20156;-39
2021/09/26 02:33:55;;;;;;;15.90;12.13;;;15.90;99.90;;;;;;5110019;28;20118;-38
2021/09/26 02:36:27;;;;;;;16.20;12.32;;;15.90;99.90;;;;;;5109428;28;20411;-39
2021/09/26 02:38:52;;;;;;;16.90;12.60;;;15.90;99.90;;;;;;5110428;28;20471;-38
2021/09/26 02:41:46;;;;;;;16.25;13.07;;;15.80;99.90;;;;;;5109287;28;20284;-36
2021/09/26 02:44:43;;;;;;;17.98;13.40;;;15.80;99.90;;;;;;5110132;28;20062;-36
2021/09/26 02:47:19;;;;;;;17.67;12.82;;;15.80;99.90;;;;;;5108812;28;20035;-36
2021/09/26 02:49:46;;;;;;;18.40;13.10;;;15.80;99.90;;;;;;5110025;28;20031;-38
2021/09/26 02:52:12;;;;;;;18.55;13.35;;;15.80;99.90;;;;;;5110006;28;20038;-39
2021/09/26 02:54:40;;;;;;;20.58;13.60;;;15.80;99.90;;;;;;5109073;28;20122;-38
2021/09/26 02:57:08;;;;;;;15.63;12.45;;;15.80;99.90;;;;;;5109618;28;20031;-38
2021/09/26 02:59:35;;;;;;;15.43;12.20;;;15.80;99.90;;;;;;5109427;28;20023;-37
2021/09/26 03:02:06;;;;;;;16.15;12.43;;;15.70;99.90;;;;;;5109522;28;20486;-39
2021/09/26 03:04:32;;;;;;;15.38;12.13;;;15.70;99.90;;;;;;5109702;28;20122;-38
2021/09/26 03:06:57;;;;;;;17.08;12.20;;;15.70;99.90;;;;;;5110389;28;20107;-37
2021/09/26 03:09:26;;;;;;;16.52;12.15;;;15.70;99.90;;;;;;5113170;28;20027;-39
2021/09/26 03:11:51;;;;;;;18.42;12.45;;;15.70;99.90;;;;;;5113923;28;20470;-37
2021/09/26 03:14:17;;;;;;;16.35;12.93;;;15.70;99.90;;;;;;5113636;28;20047;-38
2021/09/26 03:16:43;;;;;;;16.52;12.32;;;15.80;99.90;;;;;;5113863;28;20041;-38
2021/09/26 03:19:08;;;;;;;15.30;12.32;;;15.70;99.90;;;;;;5113570;28;20177;-37
2021/09/26 03:21:34;;;;;;;15.32;12.32;;;15.70;99.90;;;;;;5112107;28;20039;-37
2021/09/26 03:23:59;;;;;;;15.88;12.25;;;15.70;99.90;;;;;;5112334;28;20043;-38
2021/09/26 03:26:28;;;;;;;14.70;12.57;;;15.70;99.90;;;;;;5113162;28;20034;-35
2021/09/26 03:28:57;;;;;;;14.07;11.80;;;15.70;99.90;;;;;;5113392;28;20063;-34
2021/09/26 03:34:17;;;;;;;15.95;12.15;;;15.70;99.90;;;;;;5099753;28;20055;-37
2021/09/26 03:36:43;;;;;;;18.48;13.20;;;15.80;99.90;;;;;;5113183;28;20015;-38
2021/09/26 03:39:08;;;;;;;15.30;12.18;;;15.80;99.90;;;;;;5113465;28;20312;-37
2021/09/26 03:41:40;;;;;;;16.42;12.55;;;15.80;99.90;;;;;;5113082;28;20024;-40
2021/09/26 03:44:12;;;;;;;17.57;13.40;;;15.80;99.90;;;;;;5112718;28;20527;-38
2021/09/26 03:46:38;;;;;;;19.05;13.77;;;15.80;99.90;;;;;;5113383;28;20055;-36
2021/09/26 03:49:03;;;;;;;16.65;13.40;;;15.80;99.90;;;;;;5113457;28;20055;-41
2021/09/26 03:51:29;;;;;;;16.35;12.27;;;15.70;99.90;;;;;;5112211;28;20023;-38
2021/09/26 03:53:55;;;;;;;16.08;12.27;;;15.70;99.90;;;;;;5113323;28;20526;-38
2021/09/26 03:56:20;;;;;;;16.00;12.32;;;15.70;99.90;;;;;;5112199;28;20058;-39
2021/09/26 03:58:52;;;;;;;13.55;11.52;;;15.70;99.90;;;;;;5112503;28;20046;-38
2021/09/26 04:01:21;;;;;;;16.63;12.50;;;15.70;99.90;;;;;;5112923;28;20027;-36
2021/09/26 04:03:46;;;;;;;15.85;11.90;;;15.70;99.90;;;;;;5113121;28;20011;-37
2021/09/26 04:06:18;;;;;;;15.00;11.88;;;15.70;99.90;;;;;;5113255;28;20461;-38
2021/09/26 04:08:46;;;;;;;15.40;12.10;;;15.70;99.90;;;;;;5112730;28;20030;-40
2021/09/26 04:11:15;;;;;;;15.00;12.02;;;15.80;99.90;;;;;;5111260;28;20035;-37
2021/09/26 04:13:40;;;;;;;17.13;12.60;;;15.80;99.90;;;;;;5113031;28;20084;-39
2021/09/26 04:16:06;;;;;;;16.40;12.48;;;15.80;99.90;;;;;;5112766;28;20032;-40
2021/09/26 04:18:31;;;;;;;15.68;12.35;;;15.80;99.90;;;;;;5110915;28;20051;-39
2021/09/26 04:20:57;;;;;;;15.07;12.25;;;15.90;99.90;;;;;;5112992;28;20042;-37
2021/09/26 04:23:25;;;;;;;15.68;12.30;;;15.80;99.90;;;;;;5112132;28;20524;-40
2021/09/26 04:25:51;;;;;;;17.30;12.98;;;15.90;99.90;;;;;;5111961;28;20023;-37
2021/09/26 04:28:16;;;;;;;14.55;11.93;;;15.90;99.90;;;;;;5113076;28;20368;-37
2021/09/26 04:30:42;;;;;;;15.35;12.15;;;15.90;99.90;;;;;;5112018;28;20055;-35
2021/09/26 04:33:10;;;;;;;14.98;11.70;;;15.90;99.90;;;;;;5111787;28;20061;-36
2021/09/26 04:35:35;;;;;;;15.20;12.40;;;15.90;99.90;;;;;;5111798;28;20478;-37
2021/09/26 04:38:01;;;;;;;16.05;11.85;;;15.90;99.90;;;;;;5112372;28;20024;-38
2021/09/26 04:40:27;;;;;;;13.43;11.02;;;15.90;99.90;;;;;;5111359;28;20094;-39
2021/09/26 04:42:52;;;;;;;16.25;11.93;;;15.80;99.90;;;;;;5112731;28;20011;-38
2021/09/26 04:45:18;;;;;;;12.52;11.00;;;15.80;99.90;;;;;;5111295;28;20047;-36
2021/09/26 04:47:43;;;;;;;14.93;11.20;;;15.80;99.90;;;;;;5111757;28;20112;-36
2021/09/26 04:50:13;;;;;;;15.90;12.20;;;15.80;99.90;;;;;;5112545;28;20059;-38
2021/09/26 04:52:44;;;;;;;15.15;11.30;;;15.80;99.90;;;;;;5111466;28;20047;-41
2021/09/26 04:55:10;;;;;;;14.67;10.43;;;15.80;99.90;;;;;;5111505;28;20047;-37
2021/09/26 04:57:36;;;;;;;13.73;11.00;;;15.90;99.90;;;;;;5111005;28;20015;-37
2021/09/26 05:00:05;;;;;;;14.35;11.73;;;15.90;99.90;;;;;;5111379;28;20030;-37
2021/09/26 05:02:30;;;;;;;15.02;11.35;;;15.90;99.90;;;;;;5111022;28;20057;-38
2021/09/26 05:04:59;;;;;;;14.60;11.57;;;15.90;99.90;;;;;;5112000;28;20498;-38
2021/09/26 05:07:25;;;;;;;14.65;11.52;;;16.00;99.90;;;;;;5110722;28;20088;-37
2021/09/26 05:09:56;;;;;;;13.73;11.15;;;16.00;99.90;;;;;;5111659;28;20534;-38
2021/09/26 05:12:22;;;;;;;15.47;11.97;;;16.00;99.90;;;;;;5111136;28;20020;-38
2021/09/26 05:14:50;;;;;;;15.23;11.55;;;16.00;99.90;;;;;;5111008;28;20115;-39
2021/09/26 05:17:16;;;;;;;16.52;12.30;;;16.10;99.90;;;;;;5110936;28;20016;-37
2021/09/26 05:19:45;;;;;;;15.73;11.48;;;16.10;99.90;;;;;;5110918;28;20040;-36
2021/09/26 05:22:11;;;;;;;15.32;12.15;;;16.10;99.90;;;;;;5110579;28;20324;-39
2021/09/26 05:24:36;;;;;;;15.23;11.63;;;16.10;99.90;;;;;;5111115;28;20024;-39
2021/09/26 05:27:22;;;;;;;14.25;11.43;;;16.10;99.90;;;;;;5111122;28;20467;-39
2021/09/26 05:29:48;;;;;;;13.23;11.63;;;16.20;99.90;;;;;;5110929;28;20113;-36
2021/09/26 05:32:14;;;;;;;13.75;10.98;;;16.20;99.90;;;;;;5110627;28;20066;-33
2021/09/26 05:34:40;;;;;;;15.20;11.38;;;16.30;99.90;;;;;;5111065;28;20035;-38
2021/09/26 05:37:05;;;;;;;13.88;11.00;;;16.30;99.90;;;;;;5110406;28;20015;-39
2021/09/26 05:39:31;;;;;;;18.25;11.38;;;16.30;99.90;;;;;;5110648;28;20372;-38
2021/09/26 05:41:58;;;;;;;14.15;11.75;;;16.30;99.90;;;;;;5111424;28;20364;-33
2021/09/26 05:44:24;;;;;;;13.10;10.68;;;16.30;99.90;;;;;;5109548;28;20016;-36
2021/09/26 05:47:08;;;;;;;12.85;10.68;;;16.30;99.90;;;;;;5110303;28;20519;-38
2021/09/26 05:49:36;;;;;;;13.65;10.50;;;16.30;99.90;;;;;;5109667;28;20225;-38
2021/09/26 05:52:04;;;;;;;12.90;10.88;;;16.30;99.90;;;;;;5110938;28;20478;-39
2021/09/26 05:54:30;;;;;;;13.65;10.52;;;16.40;99.90;;;;;;5109729;28;20394;-39
2021/09/26 05:56:56;;;;;;;12.10;10.40;;;16.40;99.90;;;;;;5090856;28;20023;-37
2021/09/26 05:59:21;;;;;;;14.25;11.25;;;16.40;99.90;;;;;;5100481;28;20028;-35
2021/09/26 06:01:50;;;;;;;15.18;11.93;;;16.40;99.90;;;;;;5110867;28;20028;-36
2021/09/26 06:04:18;;;;;;;15.43;11.98;;;16.30;99.90;;;;;;5106190;28;20034;-35
2021/09/26 06:06:44;;;;;;;13.68;11.57;;;16.30;99.90;;;;;;5108975;28;20450;-37
2021/09/26 06:09:09;;;;;;;13.40;11.07;;;16.30;99.90;;;;;;5109045;28;20055;-41
2021/09/26 06:11:35;;;;;;;16.00;11.70;;;16.30;99.90;;;;;;5108176;28;20020;-39
2021/09/26 06:14:01;;;;;;;13.65;10.98;;;16.30;99.90;;;;;;5109519;28;20031;-39
2021/09/26 06:16:26;;;;;;;13.98;11.45;;;16.30;99.90;;;;;;5108745;28;20028;-39
2021/09/26 06:18:52;;;;;;;13.30;10.85;;;16.40;99.90;;;;;;5108751;28;20035;-40
2021/09/26 06:21:17;;;;;;;14.40;11.02;;;16.40;99.90;;;;;;5109755;28;20024;-36
2021/09/26 06:23:43;;;;;;;14.90;11.45;;;16.40;99.90;;;;;;5108858;28;20096;-39
2021/09/26 06:26:09;;;;;;;14.18;11.20;;;16.50;99.90;;;;;;5096737;28;20102;-40
2021/09/26 06:28:34;;;;;;;13.27;11.25;;;16.50;99.90;;;;;;5093431;28;20367;-41
2021/09/26 06:31:00;;;;;;;14.60;11.65;;;16.50;99.90;;;;;;5109884;28;20027;-40
2021/09/26 06:33:26;;;;;;;14.15;11.82;;;16.50;99.90;;;;;;5107252;28;20455;-37
2021/09/26 06:35:55;;;;;;;13.20;10.50;;;16.50;99.90;;;;;;5108062;28;20452;-38
2021/09/26 06:38:20;;;;;;;13.60;11.15;;;16.50;99.90;;;;;;5108360;28;20432;-35
2021/09/26 06:40:46;;;;;;;11.90;10.63;;;16.50;99.90;;;;;;5108814;28;20031;-39
2021/09/26 06:43:12;;;;;;;12.73;10.88;;;16.50;99.90;;;;;;5114008;28;20480;-34
2021/09/26 06:45:38;;;;;;;14.15;11.02;;;16.60;99.90;;;;;;5114122;28;20060;-37
2021/09/26 06:48:04;;;;;;;13.90;10.73;;;16.60;99.90;;;;;;5086581;28;20031;-39
2021/09/26 06:50:32;;;;;;;11.70;9.70;;;16.60;99.90;;;;;;5092616;28;20027;-39
2021/09/26 06:53:00;;;;;;;13.73;11.75;;;16.60;99.90;;;;;;5086230;28;20076;-38
2021/09/26 06:55:26;;;;;;;15.50;11.55;;;16.60;99.90;;;;;;5104032;28;20023;-35
2021/09/26 06:57:54;;;;;;;14.80;12.02;;;16.70;99.90;;;;;;5116818;28;20374;-37
2021/09/26 07:00:19;;;;;;;12.90;11.35;;;16.70;99.90;;;;;;5115918;28;20024;-39
2021/09/26 07:02:45;;;;;;;12.13;10.13;;;16.80;99.90;;;;;;5117374;28;20047;-39
2021/09/26 07:05:11;;;;;;;12.80;10.68;;;16.80;99.90;;;;;;5116871;28;20018;-39
2021/09/26 07:07:43;;;;;;;12.25;10.18;;;16.80;99.90;;;;;;5115910;28;20081;-39
2021/09/26 07:10:10;;;;;;;12.60;11.02;;;16.90;99.90;;;;;;5116359;28;20474;-39
2021/09/26 07:12:35;;;;;;;10.82;9.73;;;17.00;99.90;;;;;;5116219;28;20027;-38
2021/09/26 07:15:01;;;;;;;11.25;10.05;;;17.00;99.90;;;;;;5115749;28;20044;-39
2021/09/26 07:17:27;;;;;;;13.10;10.30;;;17.10;99.90;;;;;;5116250;28;20024;-40
2021/09/26 07:19:53;;;;;;;11.77;10.02;;;17.20;99.90;;;;;;5116006;28;20087;-40
2021/09/26 07:22:23;;;;;;;12.50;9.43;;;17.20;99.90;;;;;;5115634;28;20051;-40
2021/09/26 07:24:52;;;;;;;13.68;9.82;;;17.30;99.90;;;;;;5116253;28;20536;-39
2021/09/26 07:27:19;;;;;;;13.93;10.25;;;17.40;99.90;;;;;;5112983;28;20108;-34
2021/09/26 07:29:44;;;;;;;11.38;10.13;;;17.40;99.90;;;;;;5116191;28;20023;-38
2021/09/26 07:32:12;;;;;;;12.02;10.20;;;17.40;99.90;;;;;;5107596;28;20032;-37
2021/09/26 07:34:38;;;;;;;10.65;9.55;;;17.50;99.90;;;;;;5084395;28;20127;-38
2021/09/26 07:37:07;;;;;;;11.55;9.70;;;17.50;99.90;;;;;;5093448;28;20024;-38
2021/09/26 07:39:33;;;;;;;10.70;9.40;;;17.60;99.90;;;;;;5088462;28;20036;-38
2021/09/26 07:42:01;;;;;;;10.38;9.27;;;17.60;99.90;;;;;;5107123;28;20340;-41
2021/09/26 07:44:27;;;;;;;11.30;10.10;;;17.60;99.90;;;;;;5107443;28;20024;-43
2021/09/26 07:46:52;;;;;;;10.82;9.05;;;17.60;99.90;;;;;;5108014;28;20493;-44
2021/09/26 07:49:18;;;;;;;10.93;9.23;;;17.60;99.90;;;;;;5112014;28;20475;-41
2021/09/26 07:51:45;;;;;;;11.52;9.63;;;17.70;99.90;;;;;;5114260;28;20515;-43
2021/09/26 07:54:15;;;;;;;10.85;9.73;;;17.80;99.90;;;;;;5113395;28;20104;-39
2021/09/26 07:56:41;;;;;;;11.70;9.77;;;17.80;99.90;;;;;;5110788;28;20372;-38
2021/09/26 07:59:10;;;;;;;12.57;10.18;;;17.90;99.90;;;;;;5113091;28;20474;-41
2021/09/26 08:01:35;;;;;;;10.23;9.15;;;18.00;99.90;;;;;;5111305;28;20028;-41
2021/09/26 08:04:01;;;;;;;10.60;9.45;;;18.00;99.90;;;;;;5106756;28;20540;-40
2021/09/26 08:06:27;;;;;;;12.07;9.60;;;18.10;99.90;;;;;;5086614;28;20032;-39
2021/09/26 08:08:52;;;;;;;10.90;9.13;;;18.10;99.90;;;;;;5108587;28;20103;-40
2021/09/26 08:11:18;;;;;;;11.65;9.70;;;18.20;99.90;;;;;;5093843;28;20084;-39
2021/09/26 08:13:46;;;;;;;11.13;9.70;;;18.30;99.90;;;;;;5110505;28;20032;-37
2021/09/26 08:16:15;;;;;;;9.80;8.80;;;18.40;99.90;;;;;;5102339;28;20089;-37
2021/09/26 08:18:41;;;;;;;11.57;9.18;;;18.50;99.90;;;;;;5101136;28;20020;-39
2021/09/26 08:21:09;;;;;;;9.55;8.43;;;18.60;99.90;;;;;;5093500;28;20027;-39
2021/09/26 08:23:34;;;;;;;11.20;9.25;;;18.70;99.90;;;;;;5105049;28;20027;-38
2021/09/26 08:26:01;;;;;;;10.25;9.10;;;18.80;99.90;;;;;;5103765;28;20137;-38
2021/09/26 08:28:27;;;;;;;9.32;8.38;;;18.90;99.90;;;;;;5104350;28;20075;-39
2021/09/26 08:30:52;;;;;;;9.25;8.35;;;18.90;99.90;;;;;;5110426;28;20023;-37
2021/09/26 08:33:18;;;;;;;9.63;8.68;;;18.90;99.90;;;;;;5106008;28;20021;-41
2021/09/26 08:35:43;;;;;;;10.23;8.90;;;18.80;99.90;;;;;;5098252;28;20028;-35
2021/09/26 08:38:09;;;;;;;9.77;8.63;;;18.80;99.90;;;;;;5096574;28;20015;-38
2021/09/26 08:40:34;;;;;;;10.10;8.88;;;18.80;99.90;;;;;;5095762;28;20032;-39
2021/09/26 08:43:03;;;;;;;10.48;9.45;;;18.70;99.90;;;;;;5093621;28;20023;-36
2021/09/26 08:45:29;;;;;;;10.48;8.60;;;18.70;99.90;;;;;;5092228;28;20382;-38
2021/09/26 08:47:57;;;;;;;10.90;9.32;;;18.70;99.90;;;;;;5101017;28;20459;-40
2021/09/26 08:50:23;;;;;;;10.45;9.32;;;18.70;99.90;;;;;;5100103;28;20088;-40
2021/09/26 08:52:49;;;;;;;10.48;9.45;;;18.70;99.90;;;;;;5090899;28;20282;-38
2021/09/26 08:55:18;;;;;;;8.45;7.65;;;18.70;99.90;;;;;;5107909;28;20108;-40
2021/09/26 08:57:44;;;;;;;10.77;9.75;;;18.70;99.90;;;;;;5096888;28;20030;-40
2021/09/26 09:00:15;;;;;;;10.85;9.77;;;18.70;99.90;;;;;;5098272;28;20374;-39
2021/09/26 09:02:42;;;;;;;10.23;9.23;;;18.80;99.90;;;;;;5073033;28;20225;-37
2021/09/26 09:05:26;;;;;;;11.60;10.40;;;18.80;99.90;;;;;;5097379;28;20035;-39
2021/09/26 09:08:15;;;;;;;13.27;10.18;;;18.90;99.90;;;;;;5095410;28;20036;-36
2021/09/26 09:10:49;;;;;;;12.82;10.75;;;18.90;99.90;;;;;;5110391;28;20004;-39
2021/09/26 09:13:17;;;;;;;13.63;11.55;;;19.00;99.90;;;;;;5089175;28;20115;-39
2021/09/26 09:16:01;;;;;;;12.88;11.57;;;19.10;99.90;;;;;;5106910;28;20035;-40
2021/09/26 09:18:55;;;;;;;14.43;12.98;;;19.10;99.90;;;;;;5104507;28;20031;-39
2021/09/26 09:21:25;;;;;;;11.75;10.65;;;19.20;99.90;;;;;;5090218;28;20077;-39
2021/09/26 09:24:11;;;;;;;14.70;13.23;;;19.20;99.90;;;;;;5089928;28;20031;-40
2021/09/26 09:26:38;;;;;;;16.42;13.23;;;19.30;99.90;;;;;;5105851;28;20383;-36
2021/09/26 09:29:04;;;;;;;13.45;11.90;;;19.40;99.90;;;;;;5110022;28;20019;-34
2021/09/26 09:31:30;;;;;;;13.00;11.57;;;19.40;99.90;;;;;;5110189;28;20459;-39
2021/09/26 09:33:56;;;;;;;13.07;11.70;;;19.50;99.90;;;;;;5086742;28;20035;-39
2021/09/26 09:36:29;;;;;;;12.93;11.60;;;19.50;99.90;;;;;;5106829;28;20043;-38
2021/09/26 09:39:10;;;;;;;14.45;12.95;;;19.50;99.90;;;;;;5106540;28;20035;-37
2021/09/26 09:41:45;;;;;;;13.05;11.70;;;19.60;99.90;;;;;;5086082;28;20054;-39
2021/09/26 09:44:13;;;;;;;13.35;11.48;;;19.70;99.90;;;;;;5070617;28;20380;-39
2021/09/26 09:46:42;;;;;;;13.75;12.35;;;19.80;99.90;;;;;;5105845;28;20023;-40
2021/09/26 09:49:17;;;;;;;15.25;13.65;;;19.90;99.90;;;;;;5110302;28;20019;-39
2021/09/26 09:51:51;;;;;;;11.93;10.73;;;19.90;99.90;;;;;;5110818;28;20032;-39
2021/09/26 09:54:38;;;;;;;16.95;15.05;;;20.00;99.90;;;;;;5110483;28;20019;-39
2021/09/26 09:57:14;;;;;;;13.85;12.52;;;20.10;99.90;;;;;;5108004;28;20433;-38
2021/09/26 09:59:40;;;;;;;20.77;15.00;;;20.20;99.90;;;;;;5110717;28;20032;-37
2021/09/26 10:02:06;;;;;;;14.43;13.02;;;20.30;99.90;;;;;;5110012;28;20019;-37
2021/09/26 10:04:40;;;;;;;14.25;12.85;;;20.30;99.90;;;;;;5109479;28;20026;-37
2021/09/26 10:07:22;;;;;;;17.95;15.25;;;20.40;99.90;;;;;;5110570;28;20024;-37
2021/09/26 10:09:49;;;;;;;15.90;14.40;;;20.50;99.90;;;;;;5096535;28;20375;-37
2021/09/26 10:12:34;;;;;;;14.05;12.43;;;20.50;99.90;;;;;;5109963;28;20375;-36
2021/09/26 10:15:03;;;;;;;12.63;11.43;;;20.60;99.90;;;;;;5068798;28;20135;-36
2021/09/26 10:17:30;;;;;;;13.27;12.00;;;20.70;99.90;;;;;;5077416;28;20020;-39
2021/09/26 10:19:56;;;;;;;13.57;12.30;;;20.80;99.90;;;;;;5109334;28;20108;-37
2021/09/26 10:22:26;;;;;;;14.63;12.52;;;20.90;99.90;;;;;;5108982;28;20032;-39
2021/09/26 10:24:54;;;;;;;13.13;11.80;;;21.00;99.90;;;;;;5109346;28;20363;-39
2021/09/26 10:27:33;;;;;;;14.68;13.15;;;21.10;99.90;;;;;;5103089;28;20027;-39
2021/09/26 10:30:07;;;;;;;14.40;12.90;;;21.10;99.90;;;;;;5106505;28;20027;-39
2021/09/26 10:32:33;;;;;;;12.55;11.25;;;21.10;99.90;;;;;;5093821;28;20559;-35
2021/09/26 10:35:00;;;;;;;15.20;13.70;;;21.20;99.90;;;;;;5099455;28;20654;-39
2021/09/26 10:37:29;;;;;;;14.07;12.65;;;21.20;99.90;;;;;;5106955;28;20351;-38
2021/09/26 10:39:58;;;;;;;14.48;13.07;;;21.20;99.90;;;;;;5107717;28;20544;-37
2021/09/26 10:42:29;;;;;;;12.63;11.52;;;21.30;99.90;;;;;;5108083;28;20016;-38
2021/09/26 10:45:03;;;;;;;18.10;15.03;;;21.30;99.90;;;;;;5099862;28;20063;-37
2021/09/26 10:47:34;;;;;;;14.40;12.75;;;21.30;99.90;;;;;;5091219;28;20273;-38
2021/09/26 10:50:05;;;;;;;13.60;12.18;;;21.40;99.90;;;;;;5101611;28;20459;-37
2021/09/26 10:52:36;;;;;;;13.13;11.75;;;21.40;99.90;;;;;;5107431;28;20015;-37
2021/09/26 10:55:24;;;;;;;15.35;13.65;;;21.40;99.90;;;;;;5109640;28;20031;-38
2021/09/26 10:58:12;;;;;;;12.00;10.80;;;21.40;99.90;;;;;;5109833;28;20034;-37
2021/09/26 11:00:56;;;;;;;11.38;10.07;;;21.40;99.90;;;;;;5108793;28;20016;-37
2021/09/26 11:03:42;;;;;;;12.55;11.32;;;21.40;99.90;;;;;;5109425;28;20020;-38
2021/09/26 11:06:25;;;;;;;14.32;11.85;;;21.50;99.90;;;;;;5108827;28;20104;-40
2021/09/26 11:09:02;;;;;;;11.90;10.48;;;21.60;99.90;;;;;;5110022;28;20099;-39
2021/09/26 11:11:32;;;;;;;12.27;11.10;;;21.70;99.90;;;;;;5109843;28;20390;-39
2021/09/26 11:13:58;;;;;;;13.15;11.85;;;21.80;99.90;;;;;;5109250;28;20020;-39
2021/09/26 11:16:51;;;;;;;12.50;11.23;;;21.90;99.90;;;;;;5109171;28;20032;-40
2021/09/26 11:19:17;;;;;;;11.15;10.05;;;22.00;99.90;;;;;;5109498;28;20055;-36
2021/09/26 11:21:48;;;;;;;14.68;13.25;;;22.00;99.90;;;;;;5109526;28;20023;-38
2021/09/26 11:24:35;;;;;;;12.18;11.07;;;22.10;99.90;;;;;;5109167;28;20020;-37
2021/09/26 11:27:03;;;;;;;12.60;11.50;;;22.20;99.90;;;;;;5109519;28;20043;-37
2021/09/26 11:29:48;;;;;;;15.55;14.02;;;22.20;99.90;;;;;;5112253;28;20467;-40
2021/09/26 11:32:23;;;;;;;14.70;13.15;;;22.30;99.90;;;;;;5112402;28;20076;-35
2021/09/26 11:34:51;;;;;;;16.00;14.40;;;22.30;99.90;;;;;;5112894;28;20118;-39
2021/09/26 11:37:38;;;;;;;14.07;12.75;;;22.40;99.90;;;;;;5114154;28;20065;-39
2021/09/26 11:40:15;;;;;;;11.40;10.40;;;22.50;99.90;;;;;;5113114;28;20478;-37
2021/09/26 11:42:51;;;;;;;13.43;12.13;;;22.50;99.90;;;;;;5112778;28;20024;-36
2021/09/26 11:45:19;;;;;;;12.57;11.38;;;22.60;99.90;;;;;;5113056;28;20027;-36
2021/09/26 11:48:01;;;;;;;11.95;10.82;;;22.70;99.90;;;;;;5113919;28;20023;-34
2021/09/26 11:50:30;;;;;;;16.25;14.48;;;22.80;99.90;;;;;;5112608;28;20070;-38
2021/09/26 11:52:56;;;;;;;15.40;13.88;;;22.90;99.90;;;;;;5113024;28;20023;-39
2021/09/26 11:55:22;;;;;;;13.13;11.73;;;22.90;99.90;;;;;;5112390;28;20048;-35
2021/09/26 11:57:58;;;;;;;12.98;11.45;;;23.00;99.90;;;;;;5113417;28;20016;-39
2021/09/26 12:00:34;;;;;;;11.32;10.23;;;23.00;99.90;;;;;;5112283;28;20077;-39
2021/09/26 12:03:18;;;;;;;12.57;11.38;;;23.00;99.90;;;;;;5112591;28;20463;-38
2021/09/26 12:05:55;;;;;;;14.73;13.25;;;23.00;99.90;;;;;;5112879;28;20019;-39
2021/09/26 12:08:22;;;;;;;12.05;10.93;;;23.10;99.90;;;;;;5112580;28;20026;-38
2021/09/26 12:10:50;;;;;;;11.88;10.68;;;23.10;99.90;;;;;;5112717;28;20039;-37
2021/09/26 12:13:19;;;;;;;12.50;11.30;;;23.20;99.90;;;;;;5112950;28;20020;-34
2021/09/26 12:15:46;;;;;;;12.60;11.40;;;23.10;99.90;;;;;;5112782;28;20121;-38
2021/09/26 12:18:20;;;;;;;12.75;11.55;;;23.20;99.90;;;;;;5112618;28;20016;-38
2021/09/26 12:20:46;;;;;;;13.05;11.73;;;23.20;99.90;;;;;;5112892;28;20036;-39
2021/09/26 12:23:21;;;;;;;12.60;11.40;;;23.30;99.90;;;;;;5098944;28;20055;-36
2021/09/26 12:25:58;;;;;;;12.38;11.10;;;23.50;99.90;;;;;;5092447;28;20102;-37
2021/09/26 12:28:25;;;;;;;12.57;11.27;;;23.60;99.90;;;;;;5095712;28;20032;-39
2021/09/26 12:30:55;;;;;;;12.25;11.05;;;23.60;99.90;;;;;;5093250;28;20095;-38
2021/09/26 12:33:25;;;;;;;10.25;9.27;;;23.70;99.90;;;;;;5108466;28;20027;-38
2021/09/26 12:35:58;;;;;;;12.10;10.80;;;23.80;99.90;;;;;;5108323;28;20497;-33
2021/09/26 12:38:24;;;;;;;10.70;9.70;;;23.80;99.90;;;;;;5092683;28;20028;-35
2021/09/26 12:41:11;;;;;;;10.70;9.60;;;23.90;99.90;;;;;;5107778;28;20650;-36
2021/09/26 12:43:48;;;;;;;11.15;10.15;;;23.90;99.90;;;;;;5088819;28;20384;-33
2021/09/26 12:46:16;;;;;;;10.90;9.90;;;23.90;99.90;;;;;;5108814;28;20478;-39